createdAt,value
2023-04-14T00:00:00.942Z,10.96
2023-04-14T00:02:29.800Z,10.95
2023-04-14T00:04:56.925Z,10.90
2023-04-14T00:07:23.889Z,10.64
2023-04-14T00:09:50.852Z,10.58
2023-04-14T00:12:17.673Z,10.42
2023-04-14T00:14:54.458Z,10.17
2023-04-14T00:17:21.301Z,10.36
2023-04-14T00:19:50.916Z,10.03
2023-04-14T00:22:18.520Z,9.85
2023-04-14T00:24:48.658Z,9.92
2023-04-14T00:27:25.133Z,10.05
2023-04-14T00:29:53.067Z,10.12
2023-04-14T00:32:20.039Z,10.17
2023-04-14T00:34:46.901Z,10.23
2023-04-14T00:37:16.837Z,10.26
2023-04-14T00:39:46.600Z,10.12
2023-04-14T00:42:16.401Z,10.13
2023-04-14T00:44:43.273Z,10.18
2023-04-14T00:47:10.212Z,10.06
2023-04-14T00:49:37.769Z,10.05
2023-04-14T00:52:05.224Z,10.03
2023-04-14T00:54:34.183Z,9.98
2023-04-14T00:57:02.856Z,10.02
2023-04-14T00:59:33.664Z,10.13
2023-04-14T01:02:02.750Z,10.14
2023-04-14T01:04:40.807Z,10.02
2023-04-14T01:07:17.585Z,9.94
2023-04-14T01:09:46.824Z,9.92
2023-04-14T01:12:23.139Z,9.97
2023-04-14T01:15:21.710Z,9.93
2023-04-14T01:18:02.632Z,9.78
2023-04-14T01:20:44.836Z,9.77
2023-04-14T01:23:23.880Z,9.71
2023-04-14T01:26:19.408Z,9.67
2023-04-14T01:29:06.894Z,9.58
2023-04-14T01:32:06.259Z,9.41
2023-04-14T01:34:44.236Z,9.56
2023-04-14T01:37:17.108Z,9.68
2023-04-14T01:39:53.342Z,9.78
2023-04-14T01:42:30.448Z,9.86
2023-04-14T01:45:04.026Z,9.81
2023-04-14T01:47:32.388Z,9.60
2023-04-14T01:50:01.214Z,9.78
2023-04-14T01:52:30.711Z,9.70
2023-04-14T01:54:59.610Z,9.55
2023-04-14T01:57:29.383Z,9.64
2023-04-14T01:59:59.593Z,9.59
2023-04-14T02:02:27.887Z,9.60
2023-04-14T02:04:57.631Z,9.62
2023-04-14T02:07:26.693Z,9.54
2023-04-14T02:09:56.726Z,9.51
2023-04-14T02:12:25.213Z,9.51
2023-04-14T02:14:55.422Z,9.42
2023-04-14T02:17:24.033Z,9.43
2023-04-14T02:19:53.424Z,9.41
2023-04-14T02:22:20.499Z,9.31
2023-04-14T02:24:48.012Z,9.23
2023-04-14T02:27:19.102Z,9.04
2023-04-14T02:29:54.697Z,9.13
2023-04-14T02:32:25.063Z,9.12
2023-04-14T02:35:06.125Z,8.74
2023-04-14T02:37:42.618Z,8.88
2023-04-14T02:40:20.426Z,8.83
2023-04-14T02:42:51.010Z,8.94
2023-04-14T02:45:26.254Z,9.04
2023-04-14T02:48:01.656Z,9.03
2023-04-14T02:50:32.627Z,8.35
2023-04-14T02:53:13.269Z,8.46
2023-04-14T02:55:40.794Z,8.61
2023-04-14T02:58:08.448Z,8.48
2023-04-14T03:00:41.098Z,8.68
2023-04-14T03:03:10.405Z,8.70
2023-04-14T03:05:39.503Z,8.70
2023-04-14T03:08:11.533Z,8.67
2023-04-14T03:10:42.654Z,8.71
2023-04-14T03:13:11.764Z,8.72
2023-04-14T03:15:40.021Z,8.73
2023-04-14T03:18:07.865Z,8.76
2023-04-14T03:20:36.583Z,8.74
2023-04-14T03:23:05.649Z,8.75
2023-04-14T03:25:42.320Z,8.79
2023-04-14T03:28:19.412Z,8.64
2023-04-14T03:30:52.549Z,8.59
2023-04-14T03:33:24.663Z,8.70
2023-04-14T03:35:53.954Z,8.72
2023-04-14T03:38:21.896Z,8.67
2023-04-14T03:40:51.119Z,8.72
2023-04-14T03:43:23.927Z,8.74
2023-04-14T03:45:57.603Z,8.85
2023-04-14T03:48:30.231Z,8.96
2023-04-14T03:51:00.155Z,8.96
2023-04-14T03:53:30.322Z,8.78
2023-04-14T03:56:00.161Z,8.75
2023-04-14T03:58:30.246Z,8.77
2023-04-14T04:00:57.643Z,8.79
2023-04-14T04:03:26.082Z,8.83
2023-04-14T04:05:54.505Z,8.91
2023-04-14T04:08:23.713Z,8.79
2023-04-14T04:10:52.194Z,8.99
2023-04-14T04:13:20.959Z,8.95
2023-04-14T04:15:51.099Z,8.90
2023-04-14T04:18:18.840Z,8.68
2023-04-14T04:20:47.240Z,8.85
2023-04-14T04:23:17.483Z,8.98
2023-04-14T04:25:44.598Z,8.96
2023-04-14T04:28:26.771Z,9.01
2023-04-14T04:30:59.515Z,8.91
2023-04-14T04:33:30.108Z,8.92
2023-04-14T04:35:57.608Z,8.97
2023-04-14T04:38:31.161Z,8.97
2023-04-14T04:41:14.621Z,8.95
2023-04-14T04:43:44.578Z,8.79
2023-04-14T04:49:39.175Z,8.96
2023-04-14T04:52:08.521Z,9.02
2023-04-14T04:54:43.894Z,9.11
2023-04-14T04:57:13.034Z,9.25
2023-04-14T04:59:39.810Z,9.42
2023-04-14T05:02:07.858Z,9.49
2023-04-14T05:04:34.849Z,9.47
2023-04-14T05:07:03.526Z,9.51
2023-04-14T05:09:30.468Z,9.58
2023-04-14T05:11:57.983Z,9.60
2023-04-14T05:14:25.768Z,9.56
2023-04-14T05:16:54.145Z,9.73
2023-04-14T05:19:20.970Z,9.77
2023-04-14T05:21:47.746Z,9.79
2023-04-14T05:24:14.560Z,9.84
2023-04-14T05:29:11.660Z,10.06
2023-04-14T05:31:38.608Z,9.96
2023-04-14T05:34:05.732Z,10.05
2023-04-14T05:36:32.605Z,9.99
2023-04-14T05:39:00.191Z,10.10
2023-04-14T05:41:27.019Z,10.08
2023-04-14T05:43:53.960Z,10.30
2023-04-14T05:46:23.996Z,10.40
2023-04-14T05:48:50.982Z,10.52
2023-04-14T05:51:18.285Z,10.50
2023-04-14T05:53:45.546Z,10.52
2023-04-14T05:56:12.396Z,10.55
2023-04-14T05:58:39.251Z,10.62
2023-04-14T06:01:06.543Z,10.74
2023-04-14T06:03:33.503Z,10.75
2023-04-14T06:06:00.617Z,10.97
2023-04-14T06:08:27.469Z,11.03
2023-04-14T06:10:54.301Z,11.25
2023-04-14T06:13:22.954Z,11.39
2023-04-14T06:15:51.235Z,11.90
2023-04-14T06:18:18.140Z,12.11
2023-04-14T06:20:45.516Z,12.16
2023-04-14T06:23:12.360Z,12.32
2023-04-14T06:25:39.282Z,12.98
2023-04-14T06:28:06.194Z,13.53
2023-04-14T06:30:33.456Z,13.67
2023-04-14T06:33:04.338Z,13.89
2023-04-14T06:35:33.951Z,14.07
2023-04-14T06:38:03.960Z,14.41
2023-04-14T06:40:30.787Z,14.56
2023-04-14T06:42:57.663Z,14.71
2023-04-14T06:45:24.605Z,14.68
2023-04-14T06:47:51.870Z,14.76
2023-04-14T06:50:19.060Z,14.47
2023-04-14T06:52:46.352Z,14.60
2023-04-14T06:55:13.713Z,14.67
2023-04-14T06:57:40.635Z,14.90
2023-04-14T07:00:09.602Z,15.19
2023-04-14T07:02:39.512Z,15.41
2023-04-14T07:05:07.360Z,15.73
2023-04-14T07:07:37.836Z,15.71
2023-04-14T07:10:05.198Z,15.70
2023-04-14T07:12:33.418Z,15.91
2023-04-14T07:15:00.242Z,16.07
2023-04-14T07:17:27.559Z,16.13
2023-04-14T07:19:54.566Z,16.55
2023-04-14T07:22:21.435Z,16.50
2023-04-14T07:24:48.238Z,16.35
2023-04-14T07:27:15.906Z,16.45
2023-04-14T07:29:43.198Z,16.56
2023-04-14T07:32:12.112Z,16.63
2023-04-14T07:34:44.142Z,16.78
2023-04-14T07:37:11.464Z,16.46
2023-04-14T07:39:38.510Z,16.61
2023-04-14T07:42:05.563Z,16.56
2023-04-14T07:44:33.316Z,16.64
2023-04-14T07:47:00.174Z,17.22
2023-04-14T07:49:27.172Z,17.56
2023-04-14T07:51:54.022Z,17.56
2023-04-14T07:54:21.015Z,17.85
2023-04-14T07:56:48.812Z,18.14
2023-04-14T07:59:15.764Z,18.24
2023-04-14T08:01:42.673Z,18.03
2023-04-14T08:04:09.815Z,17.93
2023-04-14T08:06:36.947Z,18.11
2023-04-14T08:09:03.943Z,18.27
2023-04-14T08:11:31.011Z,18.54
2023-04-14T08:13:58.020Z,18.84
2023-04-14T08:16:25.374Z,19.15
2023-04-14T08:18:52.930Z,19.36
2023-04-14T08:21:20.933Z,19.10
2023-04-14T08:23:47.858Z,18.79
2023-04-14T08:26:14.712Z,18.78
2023-04-14T08:28:41.996Z,18.54
2023-04-14T08:31:08.862Z,18.83
2023-04-14T08:33:38.922Z,19.01
2023-04-14T08:36:08.535Z,18.97
2023-04-14T08:38:38.262Z,18.72
2023-04-14T08:46:00.453Z,19.33
2023-04-14T08:48:30.744Z,19.36
2023-04-14T08:51:07.508Z,19.13
2023-04-14T08:53:43.861Z,19.28
2023-04-14T08:56:13.588Z,19.53
2023-04-14T08:58:42.056Z,19.77
2023-04-14T09:01:09.839Z,19.44
2023-04-14T09:03:37.879Z,19.93
2023-04-14T09:06:06.281Z,20.42
2023-04-14T09:08:34.744Z,20.60
2023-04-14T09:11:02.499Z,20.94
2023-04-14T09:13:30.713Z,20.66
2023-04-14T09:16:00.163Z,20.64
2023-04-14T09:18:28.717Z,20.77
2023-04-14T09:21:31.376Z,20.87
2023-04-14T09:23:46.417Z,20.60
2023-04-14T09:26:13.830Z,19.99
2023-04-14T09:28:41.453Z,19.94
2023-04-14T09:31:09.980Z,20.12
2023-04-14T09:33:50.633Z,19.92
2023-04-14T09:36:23.031Z,20.42
2023-04-14T09:38:51.339Z,20.74
2023-04-14T09:41:19.945Z,20.78
2023-04-14T09:43:47.218Z,21.11
2023-04-14T09:46:15.738Z,21.31
2023-04-14T09:48:56.123Z,21.10
2023-04-14T09:51:33.208Z,21.13
2023-04-14T09:54:05.276Z,21.07
2023-04-14T09:56:32.784Z,21.03
2023-04-14T09:59:01.464Z,21.12
2023-04-14T10:01:34.460Z,21.41
2023-04-14T10:04:03.126Z,21.24
2023-04-14T10:06:33.473Z,20.83
2023-04-14T10:09:02.042Z,21.34
2023-04-14T10:11:33.063Z,21.63
2023-04-14T10:14:03.987Z,21.84
2023-04-14T10:16:31.665Z,21.44
2023-04-14T10:18:59.010Z,20.93
2023-04-14T10:21:28.000Z,21.24
2023-04-14T10:23:58.315Z,21.66
2023-04-14T10:26:26.374Z,22.14
2023-04-14T10:28:55.805Z,22.01
2023-04-14T10:31:29.395Z,21.82
2023-04-14T10:33:56.410Z,21.69
2023-04-14T10:36:32.007Z,21.75
2023-04-14T10:39:02.264Z,21.53
2023-04-14T10:41:47.460Z,21.44
2023-04-14T10:44:35.122Z,21.33
2023-04-14T10:47:05.222Z,21.49
2023-04-14T10:49:42.785Z,21.49
2023-04-14T10:52:15.538Z,21.53
2023-04-14T10:55:01.206Z,21.55
2023-04-14T10:57:29.884Z,21.60
2023-04-14T11:00:01.649Z,22.07
2023-04-14T11:02:35.249Z,22.56
2023-04-14T11:05:05.807Z,22.23
2023-04-14T11:07:46.475Z,21.92
2023-04-14T11:10:22.308Z,22.07
2023-04-14T11:12:56.756Z,22.23
2023-04-14T11:15:23.930Z,22.11
2023-04-14T11:17:51.393Z,21.81
2023-04-14T11:20:23.416Z,21.68
2023-04-14T11:22:52.729Z,21.57
2023-04-14T11:25:24.397Z,21.37
2023-04-14T11:27:52.243Z,21.48
2023-04-14T11:30:21.221Z,21.62
2023-04-14T11:32:54.327Z,21.66
2023-04-14T11:35:24.264Z,21.79
2023-04-14T11:37:55.983Z,21.75
2023-04-14T11:40:23.373Z,22.29
2023-04-14T11:42:55.183Z,22.43
2023-04-14T11:45:23.374Z,22.17
2023-04-14T11:47:58.005Z,22.20
2023-04-14T11:50:25.888Z,22.67
2023-04-14T11:52:55.187Z,22.41
2023-04-14T11:55:25.165Z,22.36
2023-04-14T11:57:52.401Z,22.51
2023-04-14T12:00:19.572Z,22.71
2023-04-14T12:02:46.732Z,22.48
2023-04-14T12:05:20.058Z,22.23
2023-04-14T12:07:48.996Z,21.98
2023-04-14T12:10:16.363Z,22.02
2023-04-14T12:12:43.402Z,22.06
2023-04-14T12:15:11.200Z,21.71
2023-04-14T12:17:38.705Z,21.83
2023-04-14T12:20:06.137Z,21.90
2023-04-14T12:22:33.007Z,21.93
2023-04-14T12:24:59.983Z,21.50
2023-04-14T12:27:27.942Z,21.48
2023-04-14T12:29:54.843Z,21.62
2023-04-14T12:32:22.820Z,21.73
2023-04-14T12:34:57.938Z,21.40
2023-04-14T12:37:27.075Z,21.43
2023-04-14T12:40:00.226Z,21.29
2023-04-14T12:42:28.525Z,21.28
2023-04-14T12:45:01.036Z,21.29
2023-04-14T12:47:35.440Z,21.43
2023-04-14T12:50:23.632Z,21.02
2023-04-14T12:52:50.594Z,21.06
2023-04-14T12:55:26.083Z,20.80
2023-04-14T12:57:53.936Z,21.12
2023-04-14T13:00:27.164Z,21.22
2023-04-14T13:02:57.165Z,21.06
2023-04-14T13:05:24.318Z,20.84
2023-04-14T13:07:51.212Z,20.64
2023-04-14T13:10:18.193Z,20.66
2023-04-14T13:12:45.077Z,20.50
2023-04-14T13:16:10.382Z,20.62
2023-04-14T13:18:00.802Z,20.81
2023-04-14T13:20:30.471Z,21.02
2023-04-14T13:22:57.349Z,21.35
2023-04-14T13:25:24.238Z,21.60
2023-04-14T13:27:51.516Z,22.12
2023-04-14T13:30:18.407Z,21.98
2023-04-14T13:32:46.196Z,22.04
2023-04-14T13:35:13.107Z,22.03
2023-04-14T13:37:40.026Z,22.04
2023-04-14T13:40:07.776Z,21.99
2023-04-14T13:42:34.637Z,22.12
2023-04-14T13:45:01.479Z,21.67
2023-04-14T13:47:28.461Z,21.88
2023-04-14T13:49:55.361Z,21.72
2023-04-14T13:52:22.156Z,21.96
2023-04-14T13:54:49.055Z,21.45
2023-04-14T13:57:15.886Z,21.24
2023-04-14T13:59:43.064Z,20.77
2023-04-14T14:02:09.964Z,20.71
2023-04-14T14:04:37.118Z,20.78
2023-04-14T14:07:04.101Z,20.59
2023-04-14T14:09:30.894Z,20.38
2023-04-14T14:11:58.019Z,20.39
2023-04-14T14:14:27.549Z,20.51
2023-04-14T14:16:55.152Z,20.21
2023-04-14T14:19:22.794Z,20.27
2023-04-14T14:21:49.835Z,20.35
2023-04-14T14:24:16.631Z,20.66
2023-04-14T14:26:43.476Z,20.84
2023-04-14T14:29:10.370Z,20.70
2023-04-14T14:31:37.312Z,20.88
2023-04-14T14:34:04.520Z,20.94
2023-04-14T14:36:31.666Z,21.05
2023-04-14T14:38:58.641Z,20.76
2023-04-14T14:41:25.539Z,20.81
2023-04-14T14:43:52.628Z,20.79
2023-04-14T14:46:19.565Z,20.78
2023-04-14T14:48:46.421Z,20.93
2023-04-14T14:51:13.279Z,21.00
2023-04-14T14:53:40.093Z,20.99
2023-04-14T14:56:07.225Z,21.09
2023-04-14T14:58:34.298Z,21.12
2023-04-14T15:01:01.416Z,21.06
2023-04-14T15:03:28.435Z,21.09
2023-04-14T15:05:55.370Z,21.07
2023-04-14T15:08:22.405Z,21.17
2023-04-14T15:10:51.432Z,21.06
2023-04-14T15:13:18.734Z,21.10
2023-04-14T15:15:45.534Z,20.82
2023-04-14T15:18:12.477Z,20.45
2023-04-14T15:20:41.470Z,20.56
2023-04-14T15:23:08.937Z,20.61
2023-04-14T15:25:35.913Z,20.68
2023-04-14T15:28:02.757Z,20.51
2023-04-14T15:30:29.542Z,20.33
2023-04-14T15:32:56.403Z,20.12
2023-04-14T15:35:23.273Z,19.96
2023-04-14T15:37:50.361Z,19.80
2023-04-14T15:40:17.714Z,19.83
2023-04-14T15:42:44.539Z,19.75
2023-04-14T15:45:11.711Z,19.75
2023-04-14T15:47:38.747Z,19.63
2023-04-14T15:50:10.357Z,19.53
2023-04-14T15:52:39.892Z,19.55
2023-04-14T15:55:07.613Z,19.68
2023-04-14T15:57:34.400Z,19.52
2023-04-14T16:00:04.218Z,19.44
2023-04-14T16:02:39.441Z,19.39
2023-04-14T16:05:07.305Z,19.39
2023-04-14T16:07:34.714Z,19.28
2023-04-14T16:10:01.564Z,19.29
2023-04-14T16:12:28.467Z,19.12
2023-04-14T16:14:55.324Z,19.21
2023-04-14T16:17:22.309Z,19.21
2023-04-14T16:19:49.338Z,19.30
2023-04-14T16:22:16.164Z,19.39
2023-04-14T16:24:43.136Z,19.33
2023-04-14T16:27:09.941Z,19.27
2023-04-14T16:29:36.805Z,19.10
2023-04-14T16:32:04.264Z,19.12
2023-04-14T16:34:31.309Z,19.00
2023-04-14T16:36:58.655Z,18.90
2023-04-14T16:39:26.057Z,18.91
2023-04-14T16:41:52.976Z,18.86
2023-04-14T16:44:19.836Z,18.84
2023-04-14T16:46:46.701Z,18.76
2023-04-14T16:49:13.836Z,18.69
2023-04-14T16:51:43.580Z,18.61
2023-04-14T16:54:10.794Z,18.55
2023-04-14T16:56:38.202Z,18.31
2023-04-14T16:59:05.068Z,18.37
2023-04-14T17:01:32.922Z,18.31
2023-04-14T17:04:00.255Z,18.42
2023-04-14T17:06:27.356Z,18.47
2023-04-14T17:08:54.219Z,18.42
2023-04-14T17:11:21.647Z,18.46
2023-04-14T17:13:48.453Z,18.53
2023-04-14T17:16:15.760Z,18.30
2023-04-14T17:18:42.921Z,18.31
2023-04-14T17:21:09.727Z,18.35
2023-04-14T17:23:37.942Z,18.30
2023-04-14T17:26:05.751Z,18.22
2023-04-14T17:28:34.423Z,18.42
2023-04-14T17:31:02.790Z,18.37
2023-04-14T17:33:30.034Z,18.33
2023-04-14T17:35:57.278Z,18.32
2023-04-14T17:38:24.303Z,18.23
2023-04-14T17:40:53.402Z,18.21
2023-04-14T17:43:20.448Z,18.25
2023-04-14T17:45:50.407Z,18.36
2023-04-14T17:48:18.124Z,18.34
2023-04-14T17:50:46.443Z,18.30
2023-04-14T17:53:16.484Z,18.32
2023-04-14T17:55:43.836Z,18.32
2023-04-14T17:58:10.810Z,18.26
2023-04-14T18:00:37.905Z,18.19
2023-04-14T18:03:04.909Z,18.11
2023-04-14T18:05:31.999Z,17.92
2023-04-14T18:07:58.828Z,17.91
2023-04-14T18:10:26.387Z,17.90
2023-04-14T18:12:53.344Z,17.96
2023-04-14T18:15:20.475Z,17.96
2023-04-14T18:17:47.727Z,17.84
2023-04-14T18:20:15.735Z,17.88
2023-04-14T18:22:43.361Z,17.94
2023-04-14T18:25:10.445Z,17.97
2023-04-14T18:30:08.301Z,17.72
2023-04-14T18:32:35.167Z,17.74
2023-04-14T18:35:02.222Z,17.76
2023-04-14T18:37:29.116Z,17.59
2023-04-14T18:39:56.702Z,17.53
2023-04-14T18:42:23.604Z,17.51
2023-04-14T18:44:50.457Z,17.46
2023-04-14T18:47:18.367Z,17.44
2023-04-14T18:49:45.682Z,17.34
2023-04-14T18:52:15.295Z,17.46
2023-04-14T18:54:42.948Z,17.34
2023-04-14T18:57:10.138Z,17.27
2023-04-14T18:59:37.121Z,17.19
2023-04-14T19:02:04.697Z,17.17
2023-04-14T19:04:31.879Z,17.37
2023-04-14T19:06:58.793Z,17.26
2023-04-14T19:09:27.513Z,17.26
2023-04-14T19:11:54.451Z,17.39
2023-04-14T19:14:21.795Z,17.42
2023-04-14T19:16:48.712Z,17.27
2023-04-14T19:19:15.760Z,17.01
2023-04-14T19:21:42.735Z,17.10
2023-04-14T19:24:09.523Z,17.33
2023-04-14T19:26:40.829Z,17.14
2023-04-14T19:29:07.749Z,17.18
2023-04-14T19:31:34.641Z,17.20
2023-04-14T19:34:01.630Z,17.24
2023-04-14T19:36:29.392Z,17.20
2023-04-14T19:38:56.316Z,17.21
2023-04-14T19:41:23.243Z,17.12
2023-04-14T19:43:52.088Z,16.92
2023-04-14T19:46:18.982Z,16.86
2023-04-14T19:48:46.824Z,16.93
2023-04-14T19:51:13.817Z,17.06
2023-04-14T19:53:41.044Z,16.97
2023-04-14T19:56:08.800Z,16.85
2023-04-14T19:58:36.590Z,16.85
2023-04-14T20:01:03.554Z,16.78
2023-04-14T20:03:33.054Z,16.82
2023-04-14T20:06:01.994Z,16.99
2023-04-14T20:08:29.125Z,17.07
2023-04-14T20:10:56.012Z,16.98
2023-04-14T20:13:24.521Z,16.90
2023-04-14T20:15:54.206Z,17.02
2023-04-14T20:18:22.766Z,16.98
2023-04-14T20:20:54.849Z,17.13
2023-04-14T20:23:24.284Z,16.98
2023-04-14T20:25:52.400Z,17.02
2023-04-14T20:28:23.148Z,16.90
2023-04-14T20:30:54.554Z,16.92
2023-04-14T20:33:22.402Z,16.84
2023-04-14T20:35:51.337Z,16.75
2023-04-14T20:38:18.266Z,16.73
2023-04-14T20:40:45.411Z,16.89
2023-04-14T20:43:12.475Z,16.70
2023-04-14T20:45:39.408Z,16.58
2023-04-14T20:48:07.843Z,16.62
2023-04-14T20:50:34.801Z,16.71
2023-04-14T20:53:01.750Z,16.61
2023-04-14T20:55:30.946Z,16.69
2023-04-14T20:58:00.201Z,16.61
2023-04-14T21:00:27.047Z,16.59
2023-04-14T21:02:55.125Z,16.45
2023-04-14T21:05:22.159Z,16.41
2023-04-14T21:07:48.986Z,16.43
2023-04-14T21:10:15.810Z,16.34
2023-04-14T21:12:54.254Z,16.32
2023-04-14T21:15:55.434Z,16.27
2023-04-14T21:18:16.358Z,16.28
2023-04-14T21:20:45.906Z,16.34
2023-04-14T21:23:12.772Z,16.28
2023-04-14T21:25:39.634Z,16.24
2023-04-14T21:28:07.195Z,16.20
2023-04-14T21:30:34.363Z,16.09
2023-04-14T21:33:01.285Z,15.97
2023-04-14T21:35:28.130Z,15.99
2023-04-14T21:37:54.950Z,15.89
2023-04-14T21:40:24.169Z,15.82
2023-04-14T21:42:53.003Z,15.83
2023-04-14T21:45:20.468Z,15.84
2023-04-14T21:47:48.157Z,15.66
2023-04-14T21:50:15.536Z,15.57
2023-04-14T21:52:42.482Z,15.59
2023-04-14T21:55:09.550Z,15.55
2023-04-14T21:57:43.852Z,15.58
2023-04-14T22:00:17.948Z,15.71
2023-04-14T22:02:45.452Z,15.56
2023-04-14T22:05:13.582Z,15.57
2023-04-14T22:07:42.334Z,15.47
2023-04-14T22:10:09.998Z,15.47
2023-04-14T22:12:37.555Z,15.42
2023-04-14T22:15:04.903Z,15.59
2023-04-14T22:17:32.790Z,15.59
2023-04-14T22:20:00.876Z,15.60
2023-04-14T22:22:28.065Z,15.59
2023-04-14T22:24:55.859Z,15.63
2023-04-14T22:27:23.325Z,15.71
2023-04-14T22:29:50.431Z,15.65
2023-04-14T22:32:17.328Z,15.71
2023-04-14T22:34:44.219Z,15.72
2023-04-14T22:37:11.449Z,15.78
2023-04-14T22:39:38.277Z,15.83
2023-04-14T22:42:05.333Z,15.70
2023-04-14T22:44:32.226Z,15.89
2023-04-14T22:46:59.160Z,15.91
2023-04-14T22:49:26.242Z,15.75
2023-04-14T22:51:53.367Z,15.65
2023-04-14T22:54:20.224Z,15.62
2023-04-14T22:56:48.228Z,15.63
2023-04-14T22:59:16.842Z,15.56
2023-04-14T23:01:43.775Z,15.59
2023-04-14T23:04:10.733Z,15.41
2023-04-14T23:06:37.914Z,15.22
2023-04-14T23:09:05.711Z,15.21
2023-04-14T23:11:32.773Z,15.20
2023-04-14T23:13:59.618Z,15.22
2023-04-14T23:16:26.652Z,15.22
2023-04-14T23:18:53.617Z,15.22
2023-04-14T23:21:22.406Z,15.05
2023-04-14T23:23:50.891Z,15.14
2023-04-14T23:26:19.805Z,15.17
2023-04-14T23:28:46.842Z,15.13
2023-04-14T23:31:13.788Z,15.10
2023-04-14T23:33:40.918Z,14.86
2023-04-14T23:36:08.238Z,14.63
2023-04-14T23:38:35.175Z,14.53
2023-04-14T23:41:02.310Z,14.51
2023-04-14T23:43:29.535Z,14.24
2023-04-14T23:45:56.768Z,14.12
2023-04-14T23:48:23.716Z,13.79
2023-04-14T23:51:00.493Z,14.03
2023-04-14T23:53:37.865Z,14.17
2023-04-14T23:56:04.984Z,14.09
2023-04-14T23:58:32.549Z,13.89
